Time;durP1;ratioP1;P1;durP2;ratioP2;P2;SDS_P1;SDS_P2;PMS_P1;PMS_P2;Temp;Humidity;BMP_temperature;BMP_pressure;BME280_temperature;BME280_humidity;BME280_pressure;Samples;Min_cycle;Max_cycle;Signal;HPM_P1;HPM_P2
2022/08/30 00:02:19;;;;;;;3.08;1.52;;;;;;;18.63;100.00;101076.25;5251263;56;1141111;-70
2022/08/30 00:07:25;;;;;;;4.10;1.67;;;;;;;18.61;100.00;101083.94;5231051;56;1141075;-70
2022/08/30 00:12:31;;;;;;;1.27;1.20;;;;;;;18.56;100.00;101082.19;5214897;56;1141053;-73
2022/08/30 00:17:38;;;;;;;3.17;1.10;;;;;;;18.52;100.00;101090.19;5251229;56;1141162;-69
2022/08/30 00:22:44;;;;;;;5.42;1.50;;;;;;;18.44;100.00;101087.47;5251145;56;1141049;-67
2022/08/30 00:27:51;;;;;;;1.67;1.17;;;;;;;18.47;100.00;101096.53;5251060;56;1141091;-71
2022/08/30 00:32:58;;;;;;;3.87;1.12;;;;;;;18.48;100.00;101088.00;5251170;56;1141108;-70
2022/08/30 00:38:03;;;;;;;7.50;0.90;;;;;;;18.38;100.00;101089.91;5251075;56;1141092;-72
2022/08/30 00:43:13;;;;;;;1.65;1.10;;;;;;;18.32;100.00;101102.11;5247929;56;1141084;-71
2022/08/30 00:48:20;;;;;;;1.10;1.00;;;;;;;18.31;100.00;101100.42;5244918;56;1141042;-70
2022/08/30 00:53:31;;;;;;;2.33;0.90;;;;;;;18.27;100.00;101102.56;5235587;56;1139059;-69
2022/08/30 00:58:42;;;;;;;0.68;0.50;;;;;;;18.22;100.00;101094.14;5235489;56;1139520;-68
2022/08/30 01:03:49;;;;;;;1.92;0.88;;;;;;;18.28;100.00;101097.55;5162766;56;1139022;-73
2022/08/30 01:08:56;;;;;;;1.20;0.95;;;;;;;18.24;100.00;101088.13;5149397;57;1138982;-69
2022/08/30 01:14:03;;;;;;;1.47;0.93;;;;;;;18.30;100.00;101087.19;5149294;57;1139058;-70
2022/08/30 01:19:23;;;;;;;3.22;1.12;;;;;;;18.22;100.00;101083.92;5184478;56;1138998;-75
2022/08/30 01:24:30;;;;;;;1.15;0.88;;;;;;;18.13;100.00;101082.19;4961496;59;1139044;-72
2022/08/30 01:29:37;;;;;;;0.80;0.80;;;;;;;18.06;100.00;101086.45;4961376;59;1139254;-71
2022/08/30 01:34:42;;;;;;;1.72;0.75;;;;;;;18.09;100.00;101084.81;4961400;59;1139047;-72
2022/08/30 01:39:49;;;;;;;6.55;0.93;;;;;;;18.11;100.00;101085.02;4961350;59;1139312;-75
2022/08/30 01:44:54;;;;;;;1.44;0.66;;;;;;;18.09;100.00;101084.81;4961059;59;1139180;-66
2022/08/30 01:50:01;;;;;;;0.65;0.65;;;;;;;18.06;100.00;101087.30;4961288;59;1139031;-66
2022/08/30 01:55:08;;;;;;;2.33;0.90;;;;;;;18.06;100.00;101090.47;4983033;59;1136933;-67
2022/08/30 02:00:15;;;;;;;2.90;1.32;;;;;;;18.06;100.00;101090.47;5072918;56;1137158;-68
2022/08/30 02:05:21;;;;;;;5.47;0.62;;;;;;;18.06;100.00;101090.47;5225522;56;1141144;-68
2022/08/30 02:10:28;;;;;;;1.25;0.60;;;;;;;18.06;100.00;101086.45;5163568;56;1141072;-67
2022/08/30 02:15:34;;;;;;;0.80;0.80;;;;;;;17.96;100.00;101084.37;5166561;56;1141014;-65
2022/08/30 02:20:41;;;;;;;4.63;1.03;;;;;;;17.91;100.00;101081.64;5235511;56;1141075;-67
2022/08/30 02:25:47;;;;;;;1.75;0.60;;;;;;;17.83;100.00;101082.92;5235595;56;1141098;-67
2022/08/30 02:30:53;;;;;;;1.42;0.72;;;;;;;17.81;100.00;101085.39;5235381;56;1141068;-69
2022/08/30 02:35:59;;;;;;;4.70;1.00;;;;;;;17.74;100.00;101077.12;5235499;56;1141056;-68
2022/08/30 02:41:06;;;;;;;0.72;0.64;;;;;;;17.73;100.00;101090.64;5235224;56;1141117;-67
2022/08/30 02:46:13;;;;;;;5.47;0.70;;;;;;;17.86;100.00;101084.45;5235434;56;1141091;-69
2022/08/30 02:51:20;;;;;;;2.17;0.70;;;;;;;17.87;100.00;101091.48;5243685;56;1141079;-71
2022/08/30 02:56:27;;;;;;;3.67;1.17;;;;;;;17.85;100.00;101088.12;5251511;56;1141113;-64
2022/08/30 03:01:35;;;;;;;1.10;0.95;;;;;;;17.80;100.00;101093.08;5247865;56;1141000;-70
2022/08/30 03:06:42;;;;;;;1.85;0.88;;;;;;;17.78;100.00;101097.23;5236268;56;1141027;-71
2022/08/30 03:11:48;;;;;;;1.32;0.60;;;;;;;17.77;100.00;101100.06;5164641;57;1141201;-69
2022/08/30 03:16:56;;;;;;;2.75;0.98;;;;;;;17.75;100.00;101104.72;5205889;56;1141117;-66
2022/08/30 03:22:04;;;;;;;1.98;0.50;;;;;;;17.73;100.00;101106.20;5251355;56;1141142;-65
2022/08/30 03:27:10;;;;;;;1.10;0.50;;;;;;;17.81;100.00;101117.50;5216051;56;1141186;-66
2022/08/30 03:32:15;;;;;;;1.95;0.88;;;;;;;17.76;100.00;101109.92;5251405;56;1141087;-68
2022/08/30 03:37:21;;;;;;;3.87;0.80;;;;;;;17.69;100.00;101110.69;5251297;56;1141127;-67
2022/08/30 03:42:27;;;;;;;4.00;0.60;;;;;;;17.62;100.00;101108.22;5248744;56;1141081;-69
2022/08/30 03:47:34;;;;;;;3.70;0.80;;;;;;;17.68;100.00;101106.33;5236944;56;1141035;-66
2022/08/30 03:52:41;;;;;;;1.87;0.80;;;;;;;17.70;100.00;101110.55;5241989;56;1141116;-68
2022/08/30 03:57:47;;;;;;;1.70;0.80;;;;;;;17.67;100.00;101114.00;5241875;56;1141243;-68
2022/08/30 04:02:52;;;;;;;5.30;0.62;;;;;;;17.58;100.00;101119.71;5191014;56;1141089;-65
2022/08/30 04:07:58;;;;;;;0.90;0.57;;;;;;;17.55;100.00;101123.55;5190940;56;1141219;-69
2022/08/30 04:13:04;;;;;;;1.82;0.72;;;;;;;17.50;100.00;101121.81;5241898;56;1141308;-66
2022/08/30 04:18:10;;;;;;;4.85;1.62;;;;;;;17.55;100.00;101127.56;5248693;56;1141082;-65
2022/08/30 04:23:16;;;;;;;1.90;1.10;;;;;;;17.58;100.00;101130.41;5251231;56;1141142;-68
2022/08/30 04:28:23;;;;;;;8.30;0.80;;;;;;;17.54;100.00;101135.73;5251260;56;1141067;-66
2022/08/30 04:33:30;;;;;;;1.22;0.72;;;;;;;17.61;100.00;101139.97;5240278;56;1141117;-65
2022/08/30 04:38:38;;;;;;;3.02;0.70;;;;;;;17.61;100.00;101136.80;5203586;56;1141051;-69
2022/08/30 04:43:52;;;;;;;2.72;0.50;;;;;;;17.63;100.00;101143.34;5202524;56;1141092;-67
2022/08/30 04:48:55;;;;;;;3.60;1.22;;;;;;;17.57;100.00;101152.80;5225618;56;1141047;-64
2022/08/30 04:54:01;;;;;;;2.60;0.82;;;;;;;17.56;100.00;101154.66;5223714;56;1141113;-68
2022/08/30 04:59:06;;;;;;;1.22;0.88;;;;;;;17.53;100.00;101152.77;5162765;56;1141269;-68
2022/08/30 05:04:13;;;;;;;3.20;0.90;;;;;;;17.55;100.00;101156.98;5181456;56;1141073;-70
2022/08/30 05:09:20;;;;;;;2.77;1.02;;;;;;;17.55;100.00;101156.98;5212920;56;1138943;-67
2022/08/30 05:14:26;;;;;;;4.83;0.90;;;;;;;17.61;100.00;101160.03;5246434;56;1139135;-64
2022/08/30 05:19:33;;;;;;;4.35;1.05;;;;;;;17.61;100.00;101156.86;5246568;56;1138987;-68
2022/08/30 05:24:38;;;;;;;1.77;0.72;;;;;;;17.68;100.00;101167.37;5246648;56;1139205;-67
2022/08/30 05:29:44;;;;;;;3.92;0.60;;;;;;;17.72;100.00;101167.91;5247093;56;1139023;-66
2022/08/30 05:34:50;;;;;;;4.25;1.02;;;;;;;17.73;100.00;101176.26;5247340;56;1138945;-67
2022/08/30 05:39:56;;;;;;;2.27;1.10;;;;;;;17.68;100.00;101170.53;5247314;56;1139101;-68
2022/08/30 05:45:04;;;;;;;1.20;1.02;;;;;;;17.68;100.00;101178.06;5179035;56;1138970;-68
2022/08/30 05:50:12;;;;;;;2.25;1.00;;;;;;;17.64;100.00;101173.99;5148226;56;1139133;-72
2022/08/30 05:55:17;;;;;;;1.20;1.00;;;;;;;17.63;100.00;101178.12;5164505;56;1139049;-68
2022/08/30 06:00:25;;;;;;;2.60;0.98;;;;;;;17.64;100.00;101173.99;5137227;56;1139021;-66
2022/08/30 06:05:31;;;;;;;4.50;0.90;;;;;;;17.69;100.00;101173.56;5242786;56;1139158;-70
2022/08/30 06:10:37;;;;;;;3.05;1.00;;;;;;;17.74;100.00;101178.79;5172623;56;1139013;-69
2022/08/30 06:15:44;;;;;;;1.70;0.72;;;;;;;17.78;100.00;101180.68;5181660;56;1139012;-69
2022/08/30 06:20:50;;;;;;;2.90;0.93;;;;;;;17.82;100.00;101182.91;5248201;56;1139005;-69
2022/08/30 06:25:56;;;;;;;3.47;1.30;;;;;;;17.89;100.00;101188.49;5248167;56;1138971;-71
2022/08/30 06:31:03;;;;;;;1.32;1.02;;;;;;;17.90;100.00;101185.67;5248036;56;1137127;-69
2022/08/30 06:36:13;;;;;;;0.88;0.60;;;;;;;17.82;100.00;101190.10;5248237;56;1137382;-69
2022/08/30 06:41:23;;;;;;;1.32;0.82;;;;;;;17.82;100.00;101196.79;5248417;56;1141112;-67
2022/08/30 06:46:32;;;;;;;1.80;0.90;;;;;;;17.86;100.00;101197.69;5248207;56;1141107;-71
2022/08/30 06:51:40;;;;;;;1.75;0.72;;;;;;;17.93;100.00;101202.77;5248066;56;1141196;-66
2022/08/30 06:56:46;;;;;;;4.15;1.00;;;;;;;17.86;100.00;101197.69;5246948;56;1141115;-65
2022/08/30 07:01:54;;;;;;;7.22;1.55;;;;;;;17.96;100.00;101208.82;5206765;56;1141067;-66
2022/08/30 07:07:00;;;;;;;2.30;1.17;;;;;;;18.04;100.00;101211.08;5160362;56;1141094;-68
2022/08/30 07:12:06;;;;;;;2.95;0.85;;;;;;;18.17;100.00;101214.27;5160278;56;1141044;-70
2022/08/30 07:22:35;;;;;;;4.47;1.12;;;;;;;18.24;100.00;101218.00;5187362;56;1141231;-69
2022/08/30 07:27:42;;;;;;;5.58;1.30;;;;;;;18.27;100.00;101223.06;5193953;56;1141089;-71
2022/08/30 07:32:48;;;;;;;2.50;0.85;;;;;;;18.32;100.00;101221.77;5194892;56;1141122;-67
2022/08/30 07:37:53;;;;;;;6.53;1.75;;;;;;;18.34;100.00;101231.80;5196531;56;1141324;-67
2022/08/30 07:43:01;;;;;;;2.00;1.10;;;;;;;18.49;100.00;101235.14;5191960;56;1141185;-69
2022/08/30 07:48:10;;;;;;;1.50;0.90;;;;;;;18.51;100.00;101236.33;5157732;56;1141126;-72
2022/08/30 07:53:15;;;;;;;4.30;1.35;;;;;;;18.46;99.56;101244.01;5187229;56;1141201;-69
2022/08/30 07:58:22;;;;;;;2.20;1.05;;;;;;;18.47;100.00;101237.16;5182212;56;1139178;-70
2022/08/30 08:03:28;;;;;;;0.68;0.68;;;;;;;18.63;100.00;101243.20;5181947;56;1141119;-68
2022/08/30 08:08:36;;;;;;;2.62;1.05;;;;;;;18.75;99.86;101243.80;5181918;56;1141203;-71
2022/08/30 08:13:44;;;;;;;1.90;0.85;;;;;;;18.95;100.00;101247.97;5185373;56;1139187;-71
2022/08/30 08:18:49;;;;;;;20.43;2.27;;;;;;;19.10;99.99;101253.62;5237846;56;1141231;-71
2022/08/30 08:23:56;;;;;;;1.20;0.55;;;;;;;19.27;98.28;101253.58;5220657;56;1141150;-72
2022/08/30 08:29:02;;;;;;;7.45;1.50;;;;;;;19.30;97.97;101253.27;5197785;56;1139012;-68
2022/08/30 08:34:10;;;;;;;5.58;0.85;;;;;;;19.43;98.73;101256.87;5195055;56;1139031;-70
2022/08/30 08:39:16;;;;;;;6.00;0.90;;;;;;;19.53;97.70;101263.52;5141836;57;1139056;-70
2022/08/30 08:44:35;;;;;;;3.50;0.70;;;;;;;19.62;97.04;101269.26;5150909;56;1138975;-73
2022/08/30 08:49:46;;;;;;;0.65;0.60;;;;;;;19.53;94.77;101275.09;5212177;56;1138996;-68
2022/08/30 08:54:59;;;;;;;0.53;0.40;;;;;;;19.49;94.61;101284.45;5140781;56;1138995;-67
2022/08/30 09:00:11;;;;;;;5.67;1.77;;;;;;;19.59;95.06;101287.02;5183477;56;1137039;-69
2022/08/30 09:05:20;;;;;;;1.83;0.80;;;;;;;19.72;95.29;101284.73;5167714;56;1136932;-68
2022/08/30 09:10:28;;;;;;;2.02;0.80;;;;;;;19.78;93.71;101286.80;5147501;57;1136963;-72
2022/08/30 09:15:35;;;;;;;2.98;0.80;;;;;;;19.76;91.87;101289.30;5049045;58;1136909;-68
2022/08/30 09:20:47;;;;;;;2.55;0.68;;;;;;;19.83;91.93;101295.22;5162352;56;1136882;-71
2022/08/30 09:26:05;;;;;;;31.87;3.00;;;;;;;19.91;91.66;101289.88;5148989;57;1136725;-68
2022/08/30 09:31:32;;;;;;;20.75;2.25;;;;;;;19.94;89.89;101290.90;5159111;56;1139112;-67
2022/08/30 09:36:49;;;;;;;1.42;0.78;;;;;;;19.92;90.75;101294.74;5153730;56;1139083;-70
2022/08/30 09:42:17;;;;;;;10.60;1.55;;;;;;;19.94;91.08;101303.48;5161952;56;1139701;-69
2022/08/30 09:47:31;;;;;;;4.37;0.70;;;;;;;20.01;90.20;101309.38;5147582;57;1141063;-70
2022/08/30 09:52:48;;;;;;;6.90;0.93;;;;;;;19.91;89.53;101302.45;5028265;58;1139036;-70
2022/08/30 09:58:01;;;;;;;12.78;1.50;;;;;;;19.95;90.70;101307.35;5059571;58;1139103;-66
2022/08/30 10:03:41;;;;;;;5.90;0.98;;;;;;;20.03;89.80;101302.01;5173211;56;1141055;-73
2022/08/30 10:09:27;;;;;;;2.42;1.05;;;;;;;20.04;90.49;101298.81;5175616;56;1139019;-68
2022/08/30 10:15:04;;;;;;;2.67;1.27;;;;;;;19.99;90.48;101303.85;5236451;56;1138903;-72
2022/08/30 10:20:23;;;;;;;0.78;0.55;;;;;;;20.00;90.49;101296.98;5149371;57;1139090;-71
2022/08/30 10:25:42;;;;;;;5.58;1.50;;;;;;;19.95;89.33;101297.95;5144009;56;1136973;-67
2022/08/30 10:30:58;;;;;;;11.75;0.85;;;;;;;19.81;89.21;101297.22;5153280;56;1136948;-68
2022/08/30 10:36:09;;;;;;;8.48;1.35;;;;;;;19.82;89.85;101303.43;5153321;56;1138993;-67
2022/08/30 10:41:36;;;;;;;2.33;1.52;;;;;;;19.87;90.22;101307.30;5150864;56;1136923;-74
2022/08/30 10:47:05;;;;;;;12.18;1.55;;;;;;;19.88;88.55;101310.83;5222616;56;1137274;-69
2022/08/30 10:52:23;;;;;;;14.10;1.70;;;;;;;19.84;88.81;101310.33;5151674;57;1141134;-73
2022/08/30 10:57:29;;;;;;;16.30;1.45;;;;;;;19.72;88.59;101312.08;5239155;56;1141041;-72
2022/08/30 11:03:18;;;;;;;10.55;1.15;;;;;;;19.57;88.55;101307.30;5182150;56;1141054;-67
2022/08/30 11:08:46;;;;;;;3.65;0.50;;;;;;;19.52;88.99;101308.79;5191148;56;1141088;-68
2022/08/30 11:13:52;;;;;;;3.72;0.75;;;;;;;19.54;88.55;101298.25;5182279;56;1139058;-71
2022/08/30 11:18:59;;;;;;;6.60;0.75;;;;;;;19.55;87.19;101304.45;5185631;56;1139077;-67
2022/08/30 11:24:21;;;;;;;2.52;0.57;;;;;;;19.61;87.98;101305.14;5182398;56;1139049;-69
2022/08/30 11:29:36;;;;;;;2.05;0.50;;;;;;;19.75;87.39;101292.98;5169146;56;1139199;-65
2022/08/30 11:34:58;;;;;;;5.15;0.60;;;;;;;20.02;88.03;101292.27;5170309;56;1139014;-67
2022/08/30 11:40:23;;;;;;;0.93;0.50;;;;;;;20.22;86.76;101292.02;5194870;56;1139002;-67
2022/08/30 11:45:34;;;;;;;8.05;1.30;;;;;;;20.47;86.28;101289.75;5193065;56;1138963;-65
2022/08/30 11:51:06;;;;;;;1.07;0.68;;;;;;;20.67;85.73;101287.11;5186633;56;1136918;-69
2022/08/30 11:56:37;;;;;;;8.25;0.78;;;;;;;20.84;84.60;101283.10;5181630;56;1136908;-66
2022/08/30 12:01:43;;;;;;;1.65;0.57;;;;;;;20.84;82.86;101285.80;5095518;57;1136954;-72
2022/08/30 12:06:57;;;;;;;32.63;3.50;;;;;;;20.77;82.78;101278.91;5176252;56;1137030;-69
2022/08/30 12:12:11;;;;;;;7.12;1.10;;;;;;;20.75;83.25;101281.42;5163569;56;1138970;-71
2022/08/30 12:22:48;;;;;;;0.62;0.55;;;;;;;20.68;82.75;101282.58;5202101;56;1138980;-70
2022/08/30 12:28:10;;;;;;;1.60;0.50;;;;;;;20.78;82.22;101276.53;5186370;56;1139083;-72
2022/08/30 12:33:31;;;;;;;0.68;0.30;;;;;;;20.90;81.20;101277.91;5167438;56;1139042;-69
2022/08/30 12:38:37;;;;;;;3.70;1.05;;;;;;;20.95;80.11;101266.12;5182613;56;1139112;-71
2022/08/30 12:43:51;;;;;;;8.58;1.40;;;;;;;21.08;79.74;101256.73;5176252;56;1139330;-66
2022/08/30 12:48:57;;;;;;;13.45;1.77;;;;;;;21.19;79.98;101251.00;5185474;56;1138944;-73
2022/08/30 12:54:20;;;;;;;10.50;0.80;;;;;;;21.17;79.73;101253.85;5177831;56;1141285;-73
2022/08/30 12:59:44;;;;;;;;;;;;;;;21.45;80.68;101246.27;5170730;56;1141088;-70
2022/08/30 13:04:52;;;;;;;0.47;0.47;;;;;;;21.94;80.46;101238.02;5145810;56;976333;-70
2022/08/30 13:10:06;;;;;;;1.15;0.65;;;;;;;22.19;74.63;101232.02;5100002;57;1137200;-68
2022/08/30 13:15:17;;;;;;;2.45;0.50;;;;;;;22.39;74.79;101230.05;5195598;56;1139010;-69
2022/08/30 13:20:25;;;;;;;2.75;0.93;;;;;;;22.39;74.79;101230.05;5183810;56;1139048;-73
2022/08/30 13:25:31;;;;;;;0.60;0.57;;;;;;;22.54;75.28;101225.23;5169560;56;1139490;-68
2022/08/30 13:30:37;;;;;;;4.53;0.93;;;;;;;22.69;73.16;101222.08;5175249;56;1139056;-75
2022/08/30 13:35:43;;;;;;;2.77;0.62;;;;;;;22.71;72.90;101216.00;5162615;56;1139004;-71
2022/08/30 13:40:49;;;;;;;26.50;2.15;;;;;;;22.59;72.25;101219.64;5153678;57;1139093;-73
2022/08/30 13:45:56;;;;;;;1.67;0.82;;;;;;;22.42;72.33;101217.56;5232185;56;1141357;-75
2022/08/30 13:51:02;;;;;;;2.25;0.72;;;;;;;22.43;72.17;101208.97;5239569;56;1136897;-66
2022/08/30 13:56:09;;;;;;;0.90;0.78;;;;;;;22.70;72.88;101204.88;5201615;56;1137034;-68
2022/08/30 14:01:15;;;;;;;2.05;0.53;;;;;;;22.85;71.23;101203.61;5198219;56;1137026;-67
2022/08/30 14:06:21;;;;;;;3.77;0.68;;;;;;;22.82;69.14;101199.92;5197100;56;1136955;-71
2022/08/30 14:11:27;;;;;;;2.22;0.68;;;;;;;22.64;69.61;101202.39;5233120;56;1137121;-74
2022/08/30 14:16:34;;;;;;;9.48;1.62;;;;;;;22.57;71.09;101206.84;5225820;56;1136915;-73
2022/08/30 14:21:40;;;;;;;15.70;1.40;;;;;;;22.68;71.14;101192.92;5246907;56;1136871;-71
2022/08/30 14:26:50;;;;;;;8.78;1.05;;;;;;;22.68;71.14;101192.92;5246440;56;1139304;-70
2022/08/30 14:31:58;;;;;;;2.60;0.82;;;;;;;22.76;71.19;101192.87;5176532;56;1136789;-74
2022/08/30 14:37:06;;;;;;;0.95;0.50;;;;;;;22.76;69.81;101191.52;5190529;56;1137079;-69
2022/08/30 14:42:11;;;;;;;0.78;0.78;;;;;;;22.61;69.40;101182.52;5187795;56;1137161;-68
2022/08/30 14:47:17;;;;;;;1.82;1.17;;;;;;;22.62;69.64;101182.01;5193064;56;1136962;-71
2022/08/30 14:52:23;;;;;;;0.50;0.50;;;;;;;22.73;68.51;101178.91;5223336;56;1136850;-74
2022/08/30 14:57:29;;;;;;;8.65;1.00;;;;;;;22.95;69.27;101172.64;5246553;56;1137152;-74
2022/08/30 15:02:35;;;;;;;2.33;0.75;;;;;;;23.03;66.47;101166.34;5231948;56;1137115;-71
2022/08/30 15:07:41;;;;;;;0.57;0.57;;;;;;;22.95;66.32;101169.94;5164777;57;1136976;-75
2022/08/30 15:12:56;;;;;;;1.17;0.80;;;;;;;22.77;65.84;101168.09;5165156;56;1136890;-72
2022/08/30 15:17:59;;;;;;;4.47;0.60;;;;;;;22.63;67.12;101167.00;5244048;56;21224;-69
2022/08/30 15:23:05;;;;;;;1.47;1.00;;;;;;;22.49;67.30;101162.91;5206181;56;1134857;-72
2022/08/30 15:28:14;;;;;;;3.40;1.10;;;;;;;22.35;67.69;101171.28;5240826;56;1138888;-67
2022/08/30 15:33:19;;;;;;;2.50;1.05;;;;;;;22.25;68.46;101170.18;5251588;56;1138951;-71
2022/08/30 15:38:25;;;;;;;1.72;0.88;;;;;;;22.21;68.62;101170.70;5251311;56;1138928;-68
2022/08/30 15:43:31;;;;;;;1.42;0.85;;;;;;;22.13;68.47;101174.81;5228323;56;1139248;-75
2022/08/30 15:48:37;;;;;;;8.25;1.30;;;;;;;22.09;67.76;101177.86;5218318;56;1139097;-69
2022/08/30 15:53:44;;;;;;;2.58;1.10;;;;;;;22.19;67.74;101172.23;5210325;56;1138991;-74
2022/08/30 15:58:50;;;;;;;6.60;1.00;;;;;;;22.30;67.10;101172.34;5242048;56;1138976;-66
2022/08/30 16:03:55;;;;;;;2.67;2.10;;;;;;;22.32;66.65;101171.63;5174024;56;1138978;-71
2022/08/30 16:09:02;;;;;;;7.87;4.85;;;;;;;22.29;66.59;101162.08;5161906;57;1139028;-74
2022/08/30 16:14:09;;;;;;;11.97;4.40;;;;;;;22.29;66.63;101165.28;5162399;56;1138987;-72
2022/08/30 16:19:15;;;;;;;27.40;5.45;;;;;;;22.22;66.19;101161.10;5083439;57;1141079;-67
2022/08/30 16:24:22;;;;;;;13.45;3.10;;;;;;;22.23;66.94;101164.63;5075259;57;1141105;-68
2022/08/30 16:29:27;;;;;;;12.18;6.37;;;;;;;22.35;67.62;101159.98;4963374;59;1141220;-72
2022/08/30 16:34:33;;;;;;;10.38;2.52;;;;;;;22.44;67.48;101164.31;4980517;58;1141236;-72
2022/08/30 16:39:39;;;;;;;3.80;2.37;;;;;;;22.53;66.90;101158.84;4980240;58;1141256;-74
2022/08/30 16:44:46;;;;;;;3.60;2.10;;;;;;;22.48;65.19;101159.89;4982672;58;1138997;-72
2022/08/30 16:49:51;;;;;;;3.40;2.00;;;;;;;22.45;65.47;101164.65;4984517;58;1139014;-66
2022/08/30 16:54:57;;;;;;;6.28;2.15;;;;;;;22.40;64.66;101159.45;4984631;58;1138922;-68
2022/08/30 17:00:05;;;;;;;7.28;1.82;;;;;;;22.20;64.58;101158.25;4996960;58;1139012;-74
2022/08/30 17:05:11;;;;;;;2.75;1.20;;;;;;;22.09;64.32;101167.59;5017048;58;1139013;-73
2022/08/30 17:10:18;;;;;;;9.13;1.50;;;;;;;21.90;64.71;101164.80;5038322;58;1138977;-72
2022/08/30 17:15:25;;;;;;;2.30;1.92;;;;;;;21.79;65.08;101165.21;5042609;56;1139007;-65
2022/08/30 17:20:32;;;;;;;3.85;2.33;;;;;;;21.61;65.48;101161.92;5210766;56;1139089;-72
2022/08/30 17:25:39;;;;;;;7.10;1.77;;;;;;;21.57;66.18;101166.81;5211579;56;1138941;-73
2022/08/30 17:30:44;;;;;;;9.65;3.10;;;;;;;21.52;66.62;101163.83;5211564;56;1138990;-67
2022/08/30 17:35:51;;;;;;;20.82;2.55;;;;;;;21.50;67.25;101169.05;5211524;56;1139131;-70
2022/08/30 17:41:07;;;;;;;3.10;1.67;;;;;;;21.48;67.68;101175.95;5149163;56;1141208;-71
2022/08/30 17:46:19;;;;;;;2.35;0.95;;;;;;;21.42;67.65;101182.01;5125961;57;1138971;-71
2022/08/30 17:51:25;;;;;;;2.20;1.60;;;;;;;21.34;67.72;101186.09;5042444;58;1139007;-67
2022/08/30 17:56:30;;;;;;;3.47;1.77;;;;;;;21.24;67.35;101187.61;5038898;58;1139312;-68
2022/08/30 18:01:36;;;;;;;8.03;2.05;;;;;;;21.15;67.45;101191.81;5025566;58;1139084;-68
2022/08/30 18:06:43;;;;;;;4.97;1.55;;;;;;;21.05;67.38;101200.08;5057225;57;1139114;-68
2022/08/30 18:11:49;;;;;;;14.35;1.98;;;;;;;20.95;67.71;101203.43;5090344;57;1139030;-69
2022/08/30 18:16:54;;;;;;;10.20;1.62;;;;;;;20.93;67.96;101204.13;5061410;58;1141286;-69
2022/08/30 18:22:00;;;;;;;7.00;1.52;;;;;;;20.89;68.11;101213.54;5062725;57;1139034;-70
2022/08/30 18:27:06;;;;;;;19.70;5.12;;;;;;;20.83;68.29;101218.23;5116109;57;1136881;-67
2022/08/30 18:32:12;;;;;;;20.08;7.72;;;;;;;20.68;67.47;101217.56;5073726;57;1139036;-68
2022/08/30 18:37:18;;;;;;;19.80;8.25;;;;;;;20.44;68.11;101224.27;4952988;58;1139033;-71
2022/08/30 18:42:26;;;;;;;19.05;8.70;;;;;;;20.31;69.26;101226.08;5028470;58;1139030;-68
2022/08/30 18:47:34;;;;;;;11.35;6.35;;;;;;;20.27;69.95;101235.45;5023157;58;1138994;-72
2022/08/30 18:52:40;;;;;;;6.28;3.08;;;;;;;20.19;70.32;101240.80;5034047;58;1138997;-71
2022/08/30 18:57:47;;;;;;;4.05;1.82;;;;;;;19.88;69.77;101251.27;5071841;58;1136907;-69
2022/08/30 19:02:52;;;;;;;5.05;3.30;;;;;;;19.63;70.37;101249.48;5015990;58;1137178;-74
2022/08/30 19:07:58;;;;;;;8.60;5.22;;;;;;;19.50;71.25;101255.78;4971013;59;1136929;-67
2022/08/30 19:13:04;;;;;;;7.92;2.50;;;;;;;19.40;72.14;101261.73;5065290;58;1137226;-71
2022/08/30 19:18:10;;;;;;;5.58;2.50;;;;;;;19.31;72.97;101267.03;5065539;58;1137002;-69
2022/08/30 19:23:17;;;;;;;10.72;2.62;;;;;;;19.22;73.51;101262.62;5026854;57;1136976;-66
2022/08/30 19:28:23;;;;;;;4.97;2.08;;;;;;;19.18;74.15;101267.10;5030315;57;1139011;-72
2022/08/30 19:33:29;;;;;;;3.55;2.55;;;;;;;19.15;74.50;101267.41;5032983;58;1136910;-70
2022/08/30 19:38:36;;;;;;;5.83;2.60;;;;;;;18.94;74.59;101259.20;5031569;57;1136917;-68
2022/08/30 19:43:42;;;;;;;3.42;1.82;;;;;;;18.95;75.47;101284.16;5026430;58;1137187;-69
2022/08/30 19:48:47;;;;;;;6.83;1.85;;;;;;;18.86;75.77;101285.95;5028849;57;1134896;-71
2022/08/30 19:53:53;;;;;;;6.10;1.60;;;;;;;18.81;76.40;101288.73;5113119;57;1134935;-69
2022/08/30 19:58:58;;;;;;;2.75;1.55;;;;;;;18.73;76.91;101289.52;5149053;57;1138919;-74
2022/08/30 20:04:04;;;;;;;4.37;1.57;;;;;;;18.65;77.32;101284.55;5074058;57;1149936;-74
2022/08/30 20:09:10;;;;;;;3.13;1.10;;;;;;;18.62;77.67;101285.73;4964347;58;1139099;-67
2022/08/30 20:14:17;;;;;;;5.20;1.30;;;;;;;18.60;78.07;101285.03;4957801;58;1139001;-68
2022/08/30 20:19:23;;;;;;;2.20;1.40;;;;;;;18.57;78.48;101287.48;5041828;58;1139083;-70
2022/08/30 20:24:29;;;;;;;3.62;1.52;;;;;;;18.53;78.58;101286.09;5041769;58;1139048;-68
2022/08/30 20:29:36;;;;;;;6.35;1.02;;;;;;;18.50;78.91;101286.88;5041578;58;1138993;-67
2022/08/30 20:34:43;;;;;;;3.30;1.30;;;;;;;18.42;79.05;101283.64;5041694;58;1139037;-70
2022/08/30 20:39:50;;;;;;;4.25;1.40;;;;;;;18.37;79.36;101292.61;5029435;58;1139118;-70
2022/08/30 20:44:57;;;;;;;11.95;2.30;;;;;;;18.35;79.78;101289.23;5021500;58;1139005;-70
2022/08/30 20:50:07;;;;;;;7.70;1.95;;;;;;;18.35;80.01;101301.78;4957312;59;1141192;-70
2022/08/30 20:55:16;;;;;;;1.47;1.37;;;;;;;18.30;80.00;101301.41;4913474;59;1139142;-68
2022/08/30 21:00:21;;;;;;;3.02;1.62;;;;;;;18.22;79.85;101294.11;5029368;58;1139001;-68
2022/08/30 21:05:28;;;;;;;6.22;1.32;;;;;;;18.15;79.72;101298.40;4992908;58;1139038;-68
2022/08/30 21:10:33;;;;;;;3.08;1.20;;;;;;;18.13;80.44;101308.41;5137481;56;1138958;-67
2022/08/30 21:15:44;;;;;;;5.20;2.35;;;;;;;18.13;80.44;101308.41;5216521;56;1138961;-72
2022/08/30 21:20:47;;;;;;;4.67;1.55;;;;;;;18.12;80.51;101308.91;5149425;57;1138917;-70
2022/08/30 21:25:53;;;;;;;5.53;1.20;;;;;;;18.06;80.61;101314.84;5149361;57;1138982;-69
2022/08/30 21:31:08;;;;;;;2.65;1.42;;;;;;;17.96;80.61;101307.85;5149341;57;1139040;-69
2022/08/30 21:41:38;;;;;;;1.82;1.00;;;;;;;17.79;81.12;101318.34;5149475;57;1139226;-70
2022/08/30 21:46:45;;;;;;;4.60;1.32;;;;;;;17.73;81.34;101317.56;5133992;57;1139030;-70
2022/08/30 21:51:54;;;;;;;8.53;1.72;;;;;;;17.73;81.50;101312.71;5091424;57;1139192;-70
2022/08/30 21:57:03;;;;;;;3.67;1.40;;;;;;;17.81;81.62;101320.38;5098984;57;1139027;-68
2022/08/30 22:02:11;;;;;;;6.15;2.40;;;;;;;17.80;81.78;101321.86;5129216;57;1139118;-71
2022/08/30 22:07:17;;;;;;;3.58;1.80;;;;;;;17.86;82.05;101319.45;5139870;57;1139098;-70
2022/08/30 22:12:22;;;;;;;3.27;1.45;;;;;;;17.85;81.69;101328.96;5194145;57;1139025;-70
2022/08/30 22:17:28;;;;;;;2.72;1.60;;;;;;;17.76;81.73;101325.31;5205834;56;1138985;-71
2022/08/30 22:22:34;;;;;;;2.58;1.12;;;;;;;17.73;81.92;101323.41;5213800;56;1138967;-70
2022/08/30 22:27:40;;;;;;;8.48;1.40;;;;;;;17.70;81.90;101323.73;5213701;56;1139021;-70
2022/08/30 22:32:46;;;;;;;3.42;1.60;;;;;;;17.58;81.78;101325.67;5141066;56;1138954;-68
2022/08/30 22:37:52;;;;;;;5.08;2.90;;;;;;;17.47;81.62;101330.70;5128040;57;1136892;-70
2022/08/30 22:42:59;;;;;;;3.58;1.82;;;;;;;17.19;81.15;101335.60;5128124;57;1136921;-69
2022/08/30 22:48:05;;;;;;;3.53;1.90;;;;;;;16.81;81.75;101333.75;5127929;57;1136909;-69
2022/08/30 22:53:11;;;;;;;4.20;1.80;;;;;;;16.56;82.70;101336.93;5127916;57;1137241;-71
2022/08/30 22:58:17;;;;;;;4.40;2.00;;;;;;;16.61;83.82;101336.88;5183633;56;1137127;-70
2022/08/30 23:03:23;;;;;;;6.35;2.33;;;;;;;16.72;84.28;101333.27;5148171;56;1136936;-70
2022/08/30 23:08:29;;;;;;;7.42;2.77;;;;;;;16.83;84.38;101334.47;5128018;57;1137104;-67
2022/08/30 23:13:35;;;;;;;3.60;2.43;;;;;;;16.86;84.25;101328.36;5127991;57;1136890;-69
2022/08/30 23:18:43;;;;;;;4.22;2.02;;;;;;;16.92;84.19;101329.64;5198833;56;1137004;-72
